Terminal Aerodrome Forecast
Issued by NWS

Home | Current Version | Previous Version | Text Only | Print | Product List | Glossary On
Versions: 1 2 3 4 5 6 7 8 9 10 11 12 13 14 15 16 17
000
FTUS46 KMTR 231722
TAFSTS
TAF
KSTS 231722Z 2318/2418 19008KT P6SM SKC
     FM232100 19011KT P6SM SKC
     FM240500 17006KT P6SM FEW006
     FM240800 VRB03KT 6SM BR OVC005
     FM241400 00000KT 1SM BR OVC002
     FM241600 00000KT P6SM SKC=

USA.gov is the U.S. government's official web portal to all federal, state and local government web resources and services.